createdAt,value
2022-08-17T00:00:52.130Z,26.21
2022-08-17T00:01:52.025Z,26.35
2022-08-17T00:02:50.281Z,26.60
2022-08-17T00:03:50.115Z,26.87
2022-08-17T00:04:50.788Z,27.08
2022-08-17T00:05:50.105Z,27.34
2022-08-17T00:06:50.088Z,27.54
2022-08-17T00:07:50.272Z,27.70
2022-08-17T00:08:50.024Z,27.94
2022-08-17T00:09:50.070Z,27.89
2022-08-17T00:10:50.058Z,28.25
2022-08-17T00:12:41.309Z,28.25
2022-08-17T00:12:50.016Z,28.28
2022-08-17T00:13:50.042Z,28.32
2022-08-17T00:14:50.022Z,28.17
2022-08-17T00:15:49.948Z,28.19
2022-08-17T00:16:56.082Z,28.11
2022-08-17T00:17:49.963Z,28.06
2022-08-17T00:19:06.324Z,27.76
2022-08-17T00:19:49.907Z,27.78
2022-08-17T00:20:49.909Z,27.50
2022-08-17T00:22:29.540Z,27.34
2022-08-17T00:22:50.268Z,27.61
2022-08-17T00:23:49.884Z,27.83
2022-08-17T00:24:49.837Z,27.98
2022-08-17T00:25:49.792Z,28.17
2022-08-17T00:26:49.805Z,28.25
2022-08-17T00:27:49.793Z,28.26
2022-08-17T00:28:49.802Z,28.23
2022-08-17T00:29:49.760Z,28.13
2022-08-17T00:30:53.001Z,27.98
2022-08-17T00:31:49.759Z,27.91
2022-08-17T00:33:12.432Z,27.96
2022-08-17T00:33:49.707Z,27.94
2022-08-17T00:34:49.692Z,28.00
2022-08-17T00:35:49.723Z,27.83
2022-08-17T00:36:49.732Z,27.74
2022-08-17T00:37:49.690Z,27.59
2022-08-17T00:38:49.672Z,27.34
2022-08-17T00:39:49.708Z,27.06
2022-08-17T00:40:49.621Z,26.90
2022-08-17T00:41:49.663Z,26.94
2022-08-17T00:42:49.777Z,26.97
2022-08-17T00:43:49.591Z,27.22
2022-08-17T00:44:49.547Z,27.25
2022-08-17T00:45:49.557Z,27.36
2022-08-17T00:46:49.546Z,27.49
2022-08-17T00:47:49.526Z,27.54
2022-08-17T00:48:49.499Z,27.65
2022-08-17T00:49:49.507Z,27.76
2022-08-17T00:50:49.482Z,27.85
2022-08-17T00:51:49.495Z,27.87
2022-08-17T00:52:49.632Z,27.81
2022-08-17T00:53:49.464Z,27.91
2022-08-17T00:54:49.406Z,27.74
2022-08-17T00:55:49.522Z,27.81
2022-08-17T00:56:49.416Z,27.50
2022-08-17T00:57:53.368Z,27.43
2022-08-17T00:58:49.385Z,27.04
2022-08-17T01:00:00.612Z,26.94
2022-08-17T01:00:49.411Z,26.66
2022-08-17T01:01:49.330Z,26.55
2022-08-17T01:02:49.346Z,26.28
2022-08-17T01:03:49.345Z,26.25
2022-08-17T01:04:49.316Z,25.99
2022-08-17T01:05:49.309Z,25.83
2022-08-17T01:06:49.264Z,25.67
2022-08-17T01:07:49.276Z,25.78
2022-08-17T01:08:49.312Z,25.72
2022-08-17T01:09:49.238Z,25.75
2022-08-17T01:11:00.583Z,25.59
2022-08-17T01:11:49.273Z,25.80
2022-08-17T01:12:49.361Z,26.00
2022-08-17T01:13:49.149Z,26.23
2022-08-17T01:14:49.200Z,26.26
2022-08-17T01:15:49.140Z,26.23
2022-08-17T01:16:49.206Z,26.00
2022-08-17T01:17:49.122Z,25.87
2022-08-17T01:18:49.150Z,25.80
2022-08-17T01:19:49.081Z,25.95
2022-08-17T01:20:49.109Z,26.08
2022-08-17T01:21:49.097Z,26.05
2022-08-17T01:22:49.234Z,26.02
2022-08-17T01:23:49.038Z,26.15
2022-08-17T01:24:49.052Z,26.15
2022-08-17T01:25:49.187Z,25.91
2022-08-17T01:26:49.090Z,25.97
2022-08-17T01:27:48.981Z,26.05
2022-08-17T01:28:55.110Z,25.81
2022-08-17T01:29:49.010Z,25.62
2022-08-17T01:30:58.678Z,25.51
2022-08-17T01:31:48.929Z,25.36
2022-08-17T01:32:49.156Z,25.17
2022-08-17T01:33:48.883Z,25.04
2022-08-17T01:34:50.606Z,24.97
2022-08-17T01:35:48.862Z,25.02
2022-08-17T01:36:48.919Z,25.08
2022-08-17T01:37:48.911Z,24.95
2022-08-17T01:38:48.853Z,24.95
2022-08-17T01:39:48.877Z,24.86
2022-08-17T01:40:48.806Z,24.70
2022-08-17T01:41:48.839Z,24.80
2022-08-17T01:42:49.053Z,24.69
2022-08-17T01:43:48.781Z,24.58
2022-08-17T01:44:48.756Z,24.54
2022-08-17T01:45:48.753Z,24.45
2022-08-17T01:46:48.750Z,24.56
2022-08-17T01:47:48.752Z,24.56
2022-08-17T01:48:48.777Z,24.41
2022-08-17T01:49:48.656Z,24.44
2022-08-17T01:50:48.680Z,24.45
2022-08-17T01:51:48.653Z,24.50
2022-08-17T01:52:49.054Z,24.43
2022-08-17T01:53:48.610Z,24.24
2022-08-17T01:54:48.625Z,24.36
2022-08-17T01:55:48.620Z,24.28
2022-08-17T01:56:48.613Z,24.05
2022-08-17T01:57:48.588Z,24.06
2022-08-17T01:58:48.627Z,23.84
2022-08-17T01:59:48.577Z,23.86
2022-08-17T02:01:00.732Z,23.68
2022-08-17T02:01:48.557Z,23.63
2022-08-17T02:02:48.619Z,23.58
2022-08-17T02:03:56.236Z,23.47
2022-08-17T02:04:48.486Z,23.45
2022-08-17T02:05:48.453Z,23.50
2022-08-17T02:06:54.219Z,23.37
2022-08-17T02:08:00.210Z,23.34
2022-08-17T02:09:01.539Z,23.29
2022-08-17T02:09:52.581Z,23.29
2022-08-17T02:10:48.445Z,23.32
2022-08-17T02:11:48.440Z,23.26
2022-08-17T02:12:48.401Z,23.11
2022-08-17T02:13:48.330Z,23.19
2022-08-17T02:14:48.378Z,22.98
2022-08-17T02:15:48.339Z,23.14
2022-08-17T02:16:48.334Z,23.24
2022-08-17T02:17:48.300Z,23.16
2022-08-17T02:18:48.293Z,23.21
2022-08-17T02:19:48.295Z,23.19
2022-08-17T02:20:48.311Z,23.16
2022-08-17T02:21:48.249Z,23.29
2022-08-17T02:22:48.393Z,23.32
2022-08-17T02:23:48.231Z,23.11
2022-08-17T02:24:59.509Z,23.14
2022-08-17T02:25:48.227Z,23.08
2022-08-17T02:26:48.170Z,23.06
2022-08-17T02:27:48.127Z,23.01
2022-08-17T02:28:48.178Z,23.26
2022-08-17T02:29:48.185Z,22.93
2022-08-17T02:30:59.056Z,23.14
2022-08-17T02:31:48.105Z,23.08
2022-08-17T02:32:48.166Z,22.96
2022-08-17T02:33:56.584Z,22.91
2022-08-17T02:34:48.101Z,23.08
2022-08-17T02:35:48.050Z,23.06
2022-08-17T02:36:48.074Z,22.88
2022-08-17T02:37:48.958Z,22.88
2022-08-17T02:38:48.027Z,22.61
2022-08-17T02:39:48.027Z,22.88
2022-08-17T02:40:47.991Z,22.93
2022-08-17T02:41:47.956Z,22.83
2022-08-17T02:42:47.941Z,22.98
2022-08-17T02:43:47.922Z,23.01
2022-08-17T02:44:47.937Z,23.11
2022-08-17T02:45:47.958Z,22.88
2022-08-17T02:46:47.915Z,22.91
2022-08-17T02:47:47.877Z,22.71
2022-08-17T02:48:47.916Z,22.83
2022-08-17T02:49:49.365Z,22.83
2022-08-17T02:50:47.873Z,22.91
2022-08-17T02:51:47.833Z,22.83
2022-08-17T02:52:55.231Z,22.81
2022-08-17T02:53:47.814Z,23.21
2022-08-17T02:54:47.842Z,23.19
2022-08-17T02:55:47.860Z,22.96
2022-08-17T02:56:47.775Z,23.29
2022-08-17T02:57:47.765Z,23.29
2022-08-17T02:58:47.771Z,23.24
2022-08-17T02:59:49.157Z,23.29
2022-08-17T03:00:47.710Z,23.06
2022-08-17T03:01:47.791Z,23.11
2022-08-17T03:02:47.874Z,23.03
2022-08-17T03:03:47.715Z,23.14
2022-08-17T03:04:47.654Z,23.42
2022-08-17T03:05:47.706Z,23.14
2022-08-17T03:06:47.650Z,23.29
2022-08-17T03:07:47.639Z,23.42
2022-08-17T03:08:47.635Z,23.52
2022-08-17T03:09:47.612Z,23.39
2022-08-17T03:10:47.644Z,23.58
2022-08-17T03:11:47.645Z,23.45
2022-08-17T03:12:47.596Z,23.60
2022-08-17T03:13:47.595Z,23.72
2022-08-17T03:14:47.535Z,23.63
2022-08-17T03:15:47.509Z,23.45
2022-08-17T03:16:47.528Z,23.55
2022-08-17T03:17:47.501Z,23.77
2022-08-17T03:18:47.458Z,23.47
2022-08-17T03:19:47.470Z,23.52
2022-08-17T03:20:47.432Z,23.55
2022-08-17T03:21:47.415Z,23.76
2022-08-17T03:22:53.086Z,23.79
2022-08-17T03:23:47.501Z,23.66
2022-08-17T03:24:47.366Z,23.42
2022-08-17T03:25:47.356Z,23.52
2022-08-17T03:26:47.361Z,23.52
2022-08-17T03:27:48.241Z,23.52
2022-08-17T03:28:47.323Z,23.60
2022-08-17T03:29:47.321Z,23.63
2022-08-17T03:30:47.308Z,23.69
2022-08-17T03:31:47.289Z,23.79
2022-08-17T03:32:47.344Z,23.92
2022-08-17T03:33:47.244Z,23.90
2022-08-17T03:34:47.258Z,23.98
2022-08-17T03:35:47.232Z,24.17
2022-08-17T03:36:47.231Z,24.08
2022-08-17T03:37:47.172Z,24.15
2022-08-17T03:38:47.185Z,24.19
2022-08-17T03:39:47.186Z,24.15
2022-08-17T03:40:57.510Z,24.17
2022-08-17T03:41:47.157Z,24.36
2022-08-17T03:42:47.150Z,24.47
2022-08-17T03:43:47.139Z,24.12
2022-08-17T03:44:47.101Z,24.16
2022-08-17T03:45:47.081Z,24.17
2022-08-17T03:46:47.077Z,24.34
2022-08-17T03:47:47.065Z,24.36
2022-08-17T03:48:47.065Z,24.28
2022-08-17T03:49:47.027Z,24.30
2022-08-17T03:50:47.022Z,24.19
2022-08-17T03:51:46.997Z,24.23
2022-08-17T03:52:46.986Z,24.26
2022-08-17T03:53:46.975Z,24.40
2022-08-17T03:54:46.972Z,24.24
2022-08-17T03:55:46.963Z,24.26
2022-08-17T03:56:46.969Z,24.31
2022-08-17T03:57:46.932Z,24.24
2022-08-17T03:58:46.904Z,24.30
2022-08-17T03:59:46.915Z,24.34
2022-08-17T04:00:46.906Z,24.33
2022-08-17T04:01:46.911Z,24.34
2022-08-17T04:02:46.906Z,24.54
2022-08-17T04:03:46.820Z,24.33
2022-08-17T04:04:46.837Z,24.44
2022-08-17T04:05:46.791Z,24.41
2022-08-17T04:06:46.819Z,24.60
2022-08-17T04:07:46.791Z,24.43
2022-08-17T04:08:46.778Z,24.20
2022-08-17T04:09:46.757Z,24.53
2022-08-17T04:10:46.720Z,24.30
2022-08-17T04:11:46.733Z,24.30
2022-08-17T04:12:46.799Z,24.33
2022-08-17T04:13:46.721Z,24.19
2022-08-17T04:14:53.030Z,24.19
2022-08-17T04:15:46.661Z,24.31
2022-08-17T04:16:47.057Z,24.28
2022-08-17T04:17:46.816Z,24.34
2022-08-17T04:18:47.169Z,24.06
2022-08-17T04:19:46.622Z,24.44
2022-08-17T04:20:46.670Z,24.15
2022-08-17T04:21:46.590Z,24.20
2022-08-17T04:22:46.636Z,24.13
2022-08-17T04:23:47.005Z,24.10
2022-08-17T04:24:46.809Z,24.38
2022-08-17T04:25:46.528Z,24.13
2022-08-17T04:26:53.261Z,24.36
2022-08-17T04:27:46.488Z,24.05
2022-08-17T04:28:46.491Z,24.16
2022-08-17T04:29:55.041Z,24.19
2022-08-17T04:30:46.454Z,24.17
2022-08-17T04:31:46.444Z,24.05
2022-08-17T04:33:04.768Z,24.05
2022-08-17T04:33:46.445Z,23.94
2022-08-17T04:34:46.408Z,23.99
2022-08-17T04:35:46.399Z,23.74
2022-08-17T04:36:50.426Z,23.86
2022-08-17T04:37:46.396Z,23.99
2022-08-17T04:38:46.339Z,23.76
2022-08-17T04:39:46.379Z,23.68
2022-08-17T04:40:46.310Z,23.66
2022-08-17T04:41:46.310Z,23.58
2022-08-17T04:42:46.305Z,23.52
2022-08-17T04:43:46.300Z,23.37
2022-08-17T04:44:46.262Z,23.29
2022-08-17T04:45:55.383Z,23.29
2022-08-17T04:46:46.245Z,23.11
2022-08-17T04:47:46.213Z,23.11
2022-08-17T04:48:46.252Z,23.03
2022-08-17T04:49:46.193Z,23.03
2022-08-17T04:50:46.175Z,23.01
2022-08-17T04:51:54.631Z,22.93
2022-08-17T04:52:46.161Z,22.86
2022-08-17T04:53:46.151Z,22.86
2022-08-17T04:54:46.171Z,22.71
2022-08-17T04:55:46.122Z,22.73
2022-08-17T04:56:46.117Z,22.76
2022-08-17T04:57:46.086Z,22.71
2022-08-17T04:58:46.076Z,22.76
2022-08-17T04:59:46.056Z,22.73
2022-08-17T05:00:46.070Z,22.66
2022-08-17T05:01:46.088Z,22.64
2022-08-17T05:02:50.352Z,22.86
2022-08-17T05:03:46.013Z,22.73
2022-08-17T05:04:46.007Z,22.68
2022-08-17T05:05:45.990Z,22.68
2022-08-17T05:06:45.975Z,22.66
2022-08-17T05:07:45.970Z,22.78
2022-08-17T05:08:45.951Z,22.86
2022-08-17T05:09:46.036Z,22.83
2022-08-17T05:10:45.975Z,22.81
2022-08-17T05:11:45.903Z,22.91
2022-08-17T05:12:46.003Z,22.98
2022-08-17T05:13:45.858Z,22.91
2022-08-17T05:14:45.903Z,23.03
2022-08-17T05:15:47.890Z,22.96
2022-08-17T05:16:45.855Z,22.98
2022-08-17T05:17:45.843Z,22.91
2022-08-17T05:18:45.823Z,23.03
2022-08-17T05:19:51.370Z,23.01
2022-08-17T05:20:45.805Z,23.19
2022-08-17T05:21:45.802Z,23.16
2022-08-17T05:22:45.751Z,23.29
2022-08-17T05:23:53.252Z,23.42
2022-08-17T05:24:53.916Z,23.63
2022-08-17T05:25:47.707Z,23.74
2022-08-17T05:26:45.717Z,23.82
2022-08-17T05:27:45.744Z,23.80
2022-08-17T05:28:45.662Z,23.77
2022-08-17T05:29:45.659Z,23.60
2022-08-17T05:30:45.676Z,23.42
2022-08-17T05:31:45.645Z,23.50
2022-08-17T05:32:45.630Z,23.55
2022-08-17T05:33:46.320Z,23.55
2022-08-17T05:34:45.635Z,23.63
2022-08-17T05:35:45.575Z,23.75
2022-08-17T05:36:45.570Z,23.76
2022-08-17T05:37:45.564Z,23.74
2022-08-17T05:38:45.525Z,23.76
2022-08-17T05:39:45.555Z,23.94
2022-08-17T05:40:45.526Z,24.30
2022-08-17T05:41:45.511Z,24.58
2022-08-17T05:42:45.491Z,24.92
2022-08-17T05:43:45.485Z,25.72
2022-08-17T05:44:45.463Z,25.80
2022-08-17T05:45:55.576Z,26.18
2022-08-17T05:46:45.447Z,27.52
2022-08-17T05:47:45.419Z,28.83
2022-08-17T05:48:45.397Z,31.28
2022-08-17T05:49:45.421Z,34.22
2022-08-17T05:50:45.399Z,37.46
2022-08-17T05:51:45.381Z,39.84
2022-08-17T05:52:45.338Z,41.42
2022-08-17T05:53:45.333Z,41.92
2022-08-17T05:54:45.332Z,43.26
2022-08-17T05:55:45.310Z,48.01
2022-08-17T05:56:45.326Z,51.75
2022-08-17T05:57:53.310Z,56.24
2022-08-17T05:58:45.263Z,59.47
2022-08-17T05:59:45.292Z,64.66
2022-08-17T06:00:45.317Z,67.80
2022-08-17T06:01:45.243Z,67.42
2022-08-17T06:02:47.889Z,70.24
2022-08-17T06:03:45.222Z,75.91
2022-08-17T06:04:45.205Z,87.31
2022-08-17T06:05:45.191Z,91.10
2022-08-17T06:06:45.187Z,95.17
2022-08-17T06:07:45.162Z,96.32
2022-08-17T06:08:45.161Z,98.59
2022-08-17T06:09:45.121Z,99.94
2022-08-17T06:10:45.139Z,100.60
2022-08-17T06:11:45.093Z,99.76
2022-08-17T06:12:45.075Z,108.34
2022-08-17T06:13:45.755Z,124.81
2022-08-17T06:14:45.085Z,130.65
2022-08-17T06:15:45.050Z,136.85
2022-08-17T06:16:45.043Z,143.16
2022-08-17T06:17:45.028Z,148.10
2022-08-17T06:18:45.034Z,148.23
2022-08-17T06:19:44.984Z,148.76
2022-08-17T06:20:44.983Z,142.67
2022-08-17T06:21:45.597Z,142.31
2022-08-17T06:22:44.996Z,143.28
2022-08-17T06:23:45.003Z,152.69
2022-08-17T06:24:44.923Z,155.81
2022-08-17T06:25:44.919Z,161.84
2022-08-17T06:26:44.892Z,169.71
2022-08-17T06:27:44.909Z,172.68
2022-08-17T06:28:44.870Z,174.66
2022-08-17T06:29:44.889Z,168.51
2022-08-17T06:30:59.219Z,167.50
2022-08-17T06:31:49.465Z,164.86
2022-08-17T06:32:44.835Z,166.34
2022-08-17T06:33:44.861Z,168.51
2022-08-17T06:34:44.801Z,170.74
2022-08-17T06:35:44.814Z,169.02
2022-08-17T06:36:44.826Z,169.02
2022-08-17T06:37:44.803Z,160.90
2022-08-17T06:38:44.761Z,162.46
2022-08-17T06:39:44.824Z,171.62
2022-08-17T06:40:44.698Z,180.30
2022-08-17T06:41:44.696Z,195.39
2022-08-17T06:42:54.882Z,205.63
2022-08-17T06:43:47.921Z,200.50
2022-08-17T06:44:51.443Z,203.98
2022-08-17T06:45:44.658Z,211.99
2022-08-17T06:46:44.647Z,219.33
2022-08-17T06:47:44.613Z,227.51
2022-08-17T06:48:44.611Z,231.18
2022-08-17T06:49:44.630Z,240.64
2022-08-17T06:50:44.595Z,251.29
2022-08-17T06:51:44.577Z,256.98
2022-08-17T06:52:46.371Z,261.47
2022-08-17T06:53:44.564Z,267.85
2022-08-17T06:54:44.510Z,274.77
2022-08-17T06:55:44.530Z,284.51
2022-08-17T06:56:53.808Z,306.20
2022-08-17T06:57:44.480Z,333.48
2022-08-17T06:58:44.481Z,371.05
2022-08-17T06:59:55.044Z,388.24
2022-08-17T07:00:44.520Z,395.82
2022-08-17T07:01:44.444Z,419.38
2022-08-17T07:02:52.052Z,428.78
2022-08-17T07:03:44.401Z,440.35
2022-08-17T07:04:44.421Z,442.39
2022-08-17T07:05:44.453Z,442.68
2022-08-17T07:06:44.376Z,463.85
2022-08-17T07:07:44.364Z,476.39
2022-08-17T07:08:44.367Z,468.06
2022-08-17T07:09:44.344Z,476.39
2022-08-17T07:10:44.310Z,518.86
2022-08-17T07:11:44.307Z,549.53
2022-08-17T07:12:44.306Z,561.05
2022-08-17T07:13:44.333Z,560.58
2022-08-17T07:14:44.286Z,600.84
2022-08-17T07:15:44.332Z,633.24
2022-08-17T07:16:44.242Z,657.49
2022-08-17T07:17:47.194Z,692.89
2022-08-17T07:18:44.243Z,696.49
2022-08-17T07:19:44.208Z,722.04
2022-08-17T07:20:44.242Z,742.05
2022-08-17T07:21:44.181Z,754.93
2022-08-17T07:22:57.509Z,758.35
2022-08-17T07:23:44.252Z,782.71
2022-08-17T07:24:44.158Z,798.09
2022-08-17T07:25:44.156Z,818.07
2022-08-17T07:26:44.099Z,876.96
2022-08-17T07:27:44.152Z,864.52
2022-08-17T07:28:44.103Z,882.74
2022-08-17T07:29:44.122Z,889.18
2022-08-17T07:30:47.095Z,925.41
2022-08-17T07:31:44.060Z,964.03
2022-08-17T07:32:44.070Z,971.01
2022-08-17T07:33:44.007Z,965.42
2022-08-17T07:34:44.003Z,1000.75
2022-08-17T07:35:44.133Z,1060.97
2022-08-17T07:36:44.012Z,1102.88
2022-08-17T07:37:43.980Z,1143.34
2022-08-17T07:38:43.975Z,1167.25
2022-08-17T07:40:14.785Z,1154.18
2022-08-17T07:40:43.943Z,1190.05
2022-08-17T07:41:57.930Z,1208.30
2022-08-17T07:42:46.783Z,1209.39
2022-08-17T07:43:43.952Z,1223.74
2022-08-17T07:44:43.865Z,1260.58
2022-08-17T07:45:43.879Z,1300.97
2022-08-17T07:46:43.839Z,1346.73
2022-08-17T07:47:43.961Z,1374.36
2022-08-17T07:48:43.850Z,1359.03
2022-08-17T07:49:43.837Z,1342.69
2022-08-17T07:50:49.613Z,1342.69
2022-08-17T07:51:43.833Z,1395.83
2022-08-17T07:52:51.997Z,1437.77
2022-08-17T07:53:43.865Z,1466.08
2022-08-17T07:54:43.742Z,1459.69
2022-08-17T07:55:43.714Z,1381.44
2022-08-17T07:56:43.719Z,1401.67
2022-08-17T07:57:43.895Z,1421.00
2022-08-17T07:58:43.699Z,1453.36
2022-08-17T07:59:43.701Z,1442.41
2022-08-17T08:00:43.659Z,1483.94
2022-08-17T08:01:43.755Z,1490.55
2022-08-17T08:02:43.630Z,1493.87
2022-08-17T08:03:43.620Z,1521.00
2022-08-17T08:04:59.633Z,1574.62
2022-08-17T08:05:49.667Z,1647.20
2022-08-17T08:06:43.694Z,1682.36
2022-08-17T08:07:43.654Z,1704.83
2022-08-17T08:08:43.541Z,1735.75
2022-08-17T08:09:43.536Z,1721.26
2022-08-17T08:10:45.188Z,1742.52
2022-08-17T08:11:44.411Z,1724.58
2022-08-17T08:12:43.552Z,1799.86
2022-08-17T08:13:43.558Z,1814.49
2022-08-17T08:14:43.486Z,1840.66
2022-08-17T08:15:45.259Z,1834.36
2022-08-17T08:16:43.517Z,1820.65
2022-08-17T08:17:43.459Z,1816.95
2022-08-17T08:18:53.890Z,1835.62
2022-08-17T08:19:43.433Z,1883.34
2022-08-17T08:20:52.763Z,1893.99
2022-08-17T08:21:43.393Z,1896.67
2022-08-17T08:22:43.359Z,1857.24
2022-08-17T08:23:43.369Z,1878.06
2022-08-17T08:24:43.326Z,1863.70
2022-08-17T08:25:43.318Z,1896.67
2022-08-17T08:26:43.336Z,1882.02
2022-08-17T08:27:43.355Z,1904.76
2022-08-17T08:28:43.337Z,1959.06
2022-08-17T08:29:43.278Z,2000.00
2022-08-17T08:30:43.252Z,2118.58
2022-08-17T08:31:43.249Z,2170.04
2022-08-17T08:32:43.247Z,2207.58
2022-08-17T08:33:43.289Z,2218.54
2022-08-17T08:34:47.400Z,2216.71
2022-08-17T08:35:43.308Z,2261.60
2022-08-17T08:37:12.763Z,2284.74
2022-08-17T08:37:43.620Z,2380.11
2022-08-17T08:38:43.176Z,2371.68
2022-08-17T08:39:43.207Z,2334.49
2022-08-17T08:40:43.164Z,2373.78
2022-08-17T08:41:44.011Z,2314.33
2022-08-17T08:42:43.123Z,2300.43
2022-08-17T08:43:43.141Z,2355.01
2022-08-17T08:45:00.207Z,2423.15
2022-08-17T08:45:43.088Z,2431.94
2022-08-17T08:46:43.096Z,2483.78
2022-08-17T08:47:43.078Z,2474.61
2022-08-17T08:48:53.899Z,2509.36
2022-08-17T08:50:03.305Z,2518.80
2022-08-17T08:50:43.029Z,2530.69
2022-08-17T08:51:43.002Z,2535.48
2022-08-17T08:52:42.997Z,2567.05
2022-08-17T08:53:42.991Z,2609.54
2022-08-17T08:54:42.999Z,2599.42
2022-08-17T08:55:42.977Z,2653.47
2022-08-17T08:56:53.997Z,2709.81
2022-08-17T08:57:42.938Z,2743.09
2022-08-17T08:58:43.043Z,2794.58
2022-08-17T08:59:44.322Z,2872.45
2022-08-17T09:00:42.943Z,2903.57
2022-08-17T09:01:42.991Z,2872.45
2022-08-17T09:02:42.908Z,2866.31
2022-08-17T09:03:52.777Z,2866.31
2022-08-17T09:05:10.311Z,2788.76
2022-08-17T09:05:42.899Z,2782.97
2022-08-17T09:06:42.829Z,2768.59
2022-08-17T09:07:42.922Z,2845.01
2022-08-17T09:08:42.830Z,2881.72
2022-08-17T09:09:42.803Z,2922.57
2022-08-17T09:10:42.777Z,2925.76
2022-08-17T09:12:01.870Z,2954.80
2022-08-17T09:12:42.752Z,2992.74
2022-08-17T09:13:42.749Z,3014.62
2022-08-17T09:14:46.812Z,3028.25
2022-08-17T09:15:42.728Z,2989.40
2022-08-17T09:16:42.693Z,2919.39
2022-08-17T09:17:42.769Z,2925.76
2022-08-17T09:19:02.550Z,2945.05
2022-08-17T09:19:42.695Z,2984.41
2022-08-17T09:20:46.579Z,3009.54
2022-08-17T09:21:48.772Z,2922.57
2022-08-17T09:22:42.696Z,2945.05
2022-08-17T09:23:42.644Z,2977.78
2022-08-17T09:24:42.617Z,3001.12
2022-08-17T09:25:42.619Z,3021.42
2022-08-17T09:26:42.585Z,3062.86
2022-08-17T09:27:42.597Z,3075.16
2022-08-17T09:28:42.557Z,3038.55
2022-08-17T09:29:42.609Z,3047.19
2022-08-17T09:30:42.572Z,3042.00
2022-08-17T09:31:49.283Z,3036.83
2022-08-17T09:32:42.567Z,3110.85
2022-08-17T09:33:42.500Z,3188.58
2022-08-17T09:34:43.530Z,3228.92
2022-08-17T09:35:42.509Z,3290.36
2022-08-17T09:36:42.498Z,3250.45
2022-08-17T09:37:42.480Z,3306.60
2022-08-17T09:38:42.476Z,3278.29
2022-08-17T09:39:42.622Z,3292.38
2022-08-17T09:40:42.446Z,3316.83
2022-08-17T09:41:48.460Z,3320.94
2022-08-17T09:42:42.428Z,3323.00
2022-08-17T09:43:42.385Z,3298.46
2022-08-17T09:44:42.421Z,3266.30
2022-08-17T09:45:42.383Z,3264.31
2022-08-17T09:46:42.550Z,3362.61
2022-08-17T09:47:42.825Z,3431.50
2022-08-17T09:48:42.377Z,3405.34
2022-08-17T09:49:42.340Z,3440.31
2022-08-17T09:51:05.453Z,3375.31
2022-08-17T09:51:42.314Z,3331.26
2022-08-17T09:52:42.342Z,3284.31
2022-08-17T09:53:44.776Z,3312.73
2022-08-17T09:54:42.296Z,3188.58
2022-08-17T09:55:42.251Z,3127.19
2022-08-17T09:56:46.153Z,3225.03
2022-08-17T09:57:42.275Z,3306.60
2022-08-17T09:58:42.218Z,3364.72
2022-08-17T09:59:42.214Z,3358.40
2022-08-17T10:00:42.213Z,3471.50
2022-08-17T10:01:42.222Z,3496.41
2022-08-17T10:02:42.160Z,3524.00
2022-08-17T10:03:42.191Z,3547.32
2022-08-17T10:04:42.168Z,3633.90
2022-08-17T10:05:42.155Z,3636.36
2022-08-17T10:06:42.161Z,3633.90
2022-08-17T10:07:42.122Z,3663.71
2022-08-17T10:08:42.242Z,3691.46
2022-08-17T10:09:42.166Z,3641.30
2022-08-17T10:10:42.085Z,3646.26
2022-08-17T10:11:44.875Z,3599.73
2022-08-17T10:12:46.506Z,3592.49
2022-08-17T10:13:52.785Z,3633.90
2022-08-17T10:14:43.796Z,3641.30
2022-08-17T10:15:42.727Z,3530.96
2022-08-17T10:16:42.063Z,3542.63
2022-08-17T10:17:42.007Z,3575.72
2022-08-17T10:18:42.006Z,3573.33
2022-08-17T10:19:44.100Z,3512.45
2022-08-17T10:20:42.024Z,3498.69
2022-08-17T10:21:41.954Z,3503.27
2022-08-17T10:22:41.975Z,3570.95
2022-08-17T10:23:41.957Z,3500.98
2022-08-17T10:25:21.738Z,3498.69
2022-08-17T10:25:54.715Z,3585.28
2022-08-17T10:26:56.208Z,3544.97
2022-08-17T10:27:41.918Z,3540.29
2022-08-17T10:28:41.905Z,3561.46
2022-08-17T10:29:48.887Z,3575.72
2022-08-17T10:30:41.883Z,3549.67
2022-08-17T10:31:41.965Z,3473.75
2022-08-17T10:32:41.873Z,3416.19
2022-08-17T10:33:41.838Z,3388.12
2022-08-17T10:34:42.018Z,3325.06
2022-08-17T10:35:41.797Z,3407.50
2022-08-17T10:36:41.795Z,3449.16
2022-08-17T10:37:41.790Z,3526.31
2022-08-17T10:38:41.799Z,3544.97
2022-08-17T10:39:52.322Z,3517.06
2022-08-17T10:40:41.766Z,3496.41
2022-08-17T10:41:41.757Z,3537.95
2022-08-17T10:42:41.724Z,3524.00
2022-08-17T10:43:41.788Z,3535.62
2022-08-17T10:44:41.722Z,3566.20
2022-08-17T10:45:41.703Z,3607.00
2022-08-17T10:46:41.705Z,3585.28
2022-08-17T10:48:00.058Z,3540.29
2022-08-17T10:48:41.691Z,3594.90
2022-08-17T10:49:41.648Z,3544.97
2022-08-17T10:50:41.653Z,3510.15
2022-08-17T10:51:41.694Z,3473.75
2022-08-17T10:52:41.625Z,3494.13
2022-08-17T10:53:41.632Z,3489.58
2022-08-17T10:54:41.627Z,3462.53
2022-08-17T10:55:41.570Z,3442.52
2022-08-17T10:56:41.614Z,3371.07
2022-08-17T10:57:41.555Z,3377.44
2022-08-17T10:58:41.563Z,3331.26
2022-08-17T10:59:41.542Z,3312.73
2022-08-17T11:00:41.608Z,3298.46
2022-08-17T11:01:41.489Z,3333.33
2022-08-17T11:02:41.506Z,3491.86
2022-08-17T11:03:41.488Z,3442.52
2022-08-17T11:04:41.463Z,3469.25
2022-08-17T11:05:43.852Z,3418.37
2022-08-17T11:06:41.435Z,3383.84
2022-08-17T11:07:41.437Z,3379.57
2022-08-17T11:08:41.523Z,3394.55
2022-08-17T11:09:41.444Z,3352.09
2022-08-17T11:10:41.406Z,3431.50
2022-08-17T11:11:41.400Z,3429.30
2022-08-17T11:12:42.402Z,3394.55
2022-08-17T11:13:41.376Z,3308.64
2022-08-17T11:14:41.373Z,3272.28
2022-08-17T11:15:41.367Z,3323.00
2022-08-17T11:16:41.323Z,3302.53
2022-08-17T11:17:41.331Z,3354.19
2022-08-17T11:18:41.311Z,3358.40
2022-08-17T11:19:41.286Z,3396.70
2022-08-17T11:20:41.266Z,3327.13
2022-08-17T11:21:41.290Z,3327.13
2022-08-17T11:22:41.279Z,3396.70
2022-08-17T11:23:41.222Z,3398.86
2022-08-17T11:24:44.610Z,3464.77
2022-08-17T11:25:41.226Z,3554.38
2022-08-17T11:26:41.241Z,3624.07
2022-08-17T11:27:41.210Z,3790.66
2022-08-17T11:28:41.185Z,3842.29
2022-08-17T11:29:41.175Z,3842.29
2022-08-17T11:30:41.173Z,3847.81
2022-08-17T11:31:41.358Z,3787.99
2022-08-17T11:32:47.239Z,3694.00
2022-08-17T11:33:41.141Z,3653.72
2022-08-17T11:34:41.127Z,3678.79
2022-08-17T11:35:41.113Z,3678.79
2022-08-17T11:36:41.088Z,3691.46
2022-08-17T11:37:41.068Z,3671.23
2022-08-17T11:38:41.062Z,3681.32
2022-08-17T11:39:41.106Z,3756.13
2022-08-17T11:40:43.774Z,3779.97
2022-08-17T11:41:41.597Z,3753.50
2022-08-17T11:42:41.027Z,3686.38
2022-08-17T11:43:42.974Z,3696.55
2022-08-17T11:44:40.995Z,3722.22
2022-08-17T11:45:40.968Z,3714.48
2022-08-17T11:46:41.103Z,3743.02
2022-08-17T11:47:40.959Z,3748.25
2022-08-17T11:48:40.990Z,3787.99
2022-08-17T11:49:41.032Z,3745.63
2022-08-17T11:50:40.938Z,3648.74
2022-08-17T11:51:40.976Z,3691.46
2022-08-17T11:52:40.915Z,3717.06
2022-08-17T11:53:41.474Z,3699.10
2022-08-17T11:54:40.958Z,3820.38
2022-08-17T11:55:44.873Z,3920.99
2022-08-17T11:56:40.891Z,3688.92
2022-08-17T11:57:40.880Z,3476.00
2022-08-17T11:58:40.907Z,3462.53
2022-08-17T11:59:40.820Z,3381.70
2022-08-17T12:00:40.844Z,3503.27
2022-08-17T12:01:40.857Z,3381.70
2022-08-17T12:02:44.420Z,3302.53
2022-08-17T12:03:40.797Z,3256.38
2022-08-17T12:04:40.847Z,3272.28
2022-08-17T12:05:40.818Z,3203.82
2022-08-17T12:06:40.751Z,3314.78
2022-08-17T12:07:40.780Z,3290.36
2022-08-17T12:08:40.735Z,3260.34
2022-08-17T12:09:40.700Z,3345.82
2022-08-17T12:10:40.685Z,3264.31
2022-08-17T12:11:57.808Z,3130.84
2022-08-17T12:12:40.721Z,3014.62
2022-08-17T12:13:40.657Z,2951.54
2022-08-17T12:15:08.186Z,2945.05
2022-08-17T12:15:40.695Z,3016.32
2022-08-17T12:16:40.632Z,3094.69
2022-08-17T12:17:42.893Z,3169.72
2022-08-17T12:18:40.637Z,3280.29
2022-08-17T12:19:40.615Z,3304.56
2022-08-17T12:20:40.575Z,3368.95
2022-08-17T12:21:40.617Z,3394.55
2022-08-17T12:22:40.576Z,3431.50
2022-08-17T12:23:40.640Z,3467.01
2022-08-17T12:24:40.636Z,3573.33
2022-08-17T12:25:40.585Z,3737.80
2022-08-17T12:26:40.584Z,3850.57
2022-08-17T12:28:04.545Z,3889.70
2022-08-17T12:28:40.552Z,3909.55
2022-08-17T12:29:40.513Z,3918.13
2022-08-17T12:30:40.514Z,3694.00